createdAt,value
2017-11-14T00:00:09.813Z,9.60
2017-11-14T00:02:38.098Z,8.93
2017-11-14T00:05:07.181Z,7.55
2017-11-14T00:07:35.501Z,9.48
2017-11-14T00:10:03.812Z,8.90
2017-11-14T00:12:32.128Z,12.02
2017-11-14T00:15:00.432Z,12.17
2017-11-14T00:17:30.356Z,9.48
2017-11-14T00:19:58.746Z,14.20
2017-11-14T00:22:27.040Z,12.80
2017-11-14T00:24:55.330Z,14.05
2017-11-14T00:27:23.656Z,9.17
2017-11-14T00:29:51.960Z,10.93
2017-11-14T00:32:20.264Z,11.35
2017-11-14T00:34:48.593Z,15.50
2017-11-14T00:37:16.905Z,14.57
2017-11-14T00:39:45.236Z,10.70
2017-11-14T00:42:13.580Z,12.25
2017-11-14T00:44:41.876Z,13.38
2017-11-14T00:47:10.198Z,19.63
2017-11-14T00:49:38.922Z,15.83
2017-11-14T00:52:07.332Z,14.33
2017-11-14T00:54:36.383Z,8.73
2017-11-14T00:57:04.728Z,9.53
2017-11-14T00:59:33.035Z,15.13
2017-11-14T01:02:01.336Z,15.73
2017-11-14T01:04:32.712Z,11.40
2017-11-14T01:07:00.988Z,11.63
2017-11-14T01:09:29.276Z,11.43
2017-11-14T01:11:57.619Z,10.45
2017-11-14T01:14:25.918Z,9.10
2017-11-14T01:16:54.216Z,10.85
2017-11-14T01:19:26.844Z,11.93
2017-11-14T01:21:55.946Z,12.70
2017-11-14T01:24:24.278Z,15.50
2017-11-14T01:26:52.625Z,11.57
2017-11-14T01:29:20.923Z,11.00
2017-11-14T01:31:49.277Z,10.55
2017-11-14T01:34:17.604Z,11.60
2017-11-14T01:36:45.970Z,11.25
2017-11-14T01:39:14.253Z,12.27
2017-11-14T01:41:42.596Z,11.87
2017-11-14T01:44:10.941Z,15.52
2017-11-14T01:46:39.259Z,10.02
2017-11-14T01:49:07.639Z,10.95
2017-11-14T01:51:35.921Z,11.30
2017-11-14T01:54:04.216Z,10.87
2017-11-14T01:56:32.639Z,9.60
2017-11-14T01:59:00.941Z,11.03
2017-11-14T02:01:30.025Z,10.33
2017-11-14T02:03:58.364Z,13.10
2017-11-14T02:06:26.661Z,10.40
2017-11-14T02:08:54.947Z,10.37
2017-11-14T02:11:23.286Z,14.60
2017-11-14T02:13:51.596Z,11.27
2017-11-14T02:16:19.890Z,12.32
2017-11-14T02:18:48.215Z,9.80
2017-11-14T02:21:17.288Z,10.07
2017-11-14T02:23:45.746Z,18.35
2017-11-14T02:26:15.778Z,10.60
2017-11-14T02:28:44.900Z,13.52
2017-11-14T02:31:13.193Z,7.97
2017-11-14T02:33:41.478Z,8.87
2017-11-14T02:36:09.814Z,13.32
2017-11-14T02:38:38.892Z,16.73
2017-11-14T02:41:07.225Z,11.97
2017-11-14T02:43:35.628Z,10.50
2017-11-14T02:46:03.951Z,10.35
2017-11-14T02:48:33.021Z,12.52
2017-11-14T02:51:01.371Z,9.70
2017-11-14T02:53:30.445Z,12.43
2017-11-14T02:55:58.757Z,12.88
2017-11-14T02:58:27.068Z,8.63
2017-11-14T03:00:55.344Z,9.35
2017-11-14T03:03:23.640Z,14.27
2017-11-14T03:05:53.923Z,10.98
2017-11-14T03:08:22.226Z,10.90
2017-11-14T03:10:51.314Z,10.77
2017-11-14T03:13:19.734Z,10.77
2017-11-14T03:15:48.023Z,9.25
2017-11-14T03:18:16.331Z,14.73
2017-11-14T03:20:45.619Z,14.05
2017-11-14T03:23:13.908Z,17.12
2017-11-14T03:25:42.241Z,12.50
2017-11-14T03:28:10.558Z,10.52
2017-11-14T03:30:39.646Z,14.02
2017-11-14T03:33:07.988Z,11.05
2017-11-14T03:35:37.064Z,11.82
2017-11-14T03:38:05.339Z,9.48
2017-11-14T03:40:33.697Z,10.50
2017-11-14T03:43:02.025Z,13.73
2017-11-14T03:45:30.343Z,10.07
2017-11-14T03:47:58.664Z,12.80
2017-11-14T03:50:26.975Z,13.27
2017-11-14T03:52:55.256Z,9.80
2017-11-14T03:55:26.675Z,10.55
2017-11-14T03:57:54.977Z,15.90
2017-11-14T04:00:23.268Z,13.02
2017-11-14T04:02:51.608Z,16.17
2017-11-14T04:05:19.942Z,10.18
2017-11-14T04:07:49.020Z,10.68
2017-11-14T04:10:17.335Z,14.63
2017-11-14T04:12:45.624Z,9.55
2017-11-14T04:15:14.012Z,9.50
2017-11-14T04:17:42.327Z,11.30
2017-11-14T04:20:10.663Z,14.73
2017-11-14T04:22:38.992Z,14.77
2017-11-14T04:25:08.178Z,12.25
2017-11-14T04:27:36.472Z,16.95
2017-11-14T04:30:04.768Z,11.93
2017-11-14T04:32:33.107Z,11.65
2017-11-14T04:35:01.417Z,11.43
2017-11-14T04:37:29.718Z,13.73
2017-11-14T04:39:58.055Z,11.80
2017-11-14T04:42:26.357Z,20.75
2017-11-14T04:44:55.416Z,17.87
2017-11-14T04:47:25.711Z,23.35
2017-11-14T04:49:54.032Z,16.58
2017-11-14T04:52:23.088Z,13.27
2017-11-14T04:54:51.413Z,15.02
2017-11-14T04:57:19.751Z,13.00
2017-11-14T04:59:48.854Z,13.62
2017-11-14T05:02:17.212Z,9.65
2017-11-14T05:04:45.546Z,12.27
2017-11-14T05:07:13.860Z,13.43
2017-11-14T05:09:42.198Z,11.02
2017-11-14T05:12:11.335Z,11.35
2017-11-14T05:14:39.634Z,11.12
2017-11-14T05:17:08.728Z,10.13
2017-11-14T05:19:37.045Z,10.13
2017-11-14T05:22:05.399Z,11.35
2017-11-14T05:24:33.942Z,8.00
2017-11-14T05:27:02.252Z,8.77
2017-11-14T05:29:30.612Z,7.85
2017-11-14T05:31:58.902Z,8.60
2017-11-14T05:34:27.258Z,9.10
2017-11-14T05:36:55.544Z,9.40
2017-11-14T05:39:23.899Z,8.73
2017-11-14T05:41:52.193Z,9.10
2017-11-14T05:44:20.484Z,12.02
2017-11-14T05:46:48.820Z,16.00
2017-11-14T05:49:17.888Z,14.90
2017-11-14T05:51:46.236Z,14.45
2017-11-14T05:54:14.608Z,8.77
2017-11-14T05:56:42.905Z,13.75
2017-11-14T05:59:11.207Z,11.25
2017-11-14T06:01:39.573Z,11.65
2017-11-14T06:04:07.865Z,13.68
2017-11-14T06:06:38.119Z,9.00
2017-11-14T06:09:06.561Z,10.45
2017-11-14T06:11:35.663Z,12.02
2017-11-14T06:14:03.982Z,15.00
2017-11-14T06:16:32.304Z,10.85
2017-11-14T06:19:07.103Z,9.50
2017-11-14T06:21:35.428Z,13.82
2017-11-14T06:24:03.779Z,12.03
2017-11-14T06:26:32.112Z,11.70
2017-11-14T06:29:01.213Z,11.40
2017-11-14T06:31:29.539Z,14.43
2017-11-14T06:33:57.896Z,14.23
2017-11-14T06:36:26.215Z,15.52
2017-11-14T06:38:54.521Z,17.48
2017-11-14T06:41:22.895Z,14.38
2017-11-14T06:43:51.213Z,14.63
2017-11-14T06:46:19.566Z,13.82
2017-11-14T06:48:48.687Z,14.30
2017-11-14T06:51:17.779Z,26.17
2017-11-14T06:53:46.072Z,18.95
2017-11-14T06:56:14.454Z,16.48
2017-11-14T06:58:42.758Z,16.63
2017-11-14T07:01:13.636Z,16.58
2017-11-14T07:03:42.869Z,17.45
2017-11-14T07:06:11.189Z,19.27
2017-11-14T07:08:39.520Z,20.43
2017-11-14T07:11:07.825Z,16.60
2017-11-14T07:13:36.149Z,23.42
2017-11-14T07:16:04.447Z,17.37
2017-11-14T07:18:33.505Z,11.65
2017-11-14T07:21:01.970Z,15.53
2017-11-14T07:23:31.064Z,16.08
2017-11-14T07:25:59.398Z,14.80
2017-11-14T07:28:28.466Z,15.50
2017-11-14T07:30:56.805Z,16.30
2017-11-14T07:33:25.114Z,13.50
2017-11-14T07:35:53.429Z,16.48
2017-11-14T07:38:21.788Z,15.47
2017-11-14T07:40:50.088Z,17.58
2017-11-14T07:43:18.432Z,12.43
2017-11-14T07:45:46.776Z,16.67
2017-11-14T07:48:15.071Z,17.90
2017-11-14T07:50:44.165Z,24.10
2017-11-14T07:53:12.503Z,16.05
2017-11-14T07:55:40.859Z,24.03
2017-11-14T07:58:09.183Z,16.37
2017-11-14T08:00:37.500Z,25.60
2017-11-14T08:03:06.593Z,21.05
2017-11-14T08:05:35.724Z,32.20
2017-11-14T08:08:08.813Z,23.60
2017-11-14T08:10:37.131Z,19.48
2017-11-14T08:13:05.431Z,25.70
2017-11-14T08:15:33.728Z,25.37
2017-11-14T08:18:02.113Z,22.77
2017-11-14T08:20:30.408Z,23.35
2017-11-14T08:22:58.710Z,36.83
2017-11-14T08:25:27.018Z,53.78
2017-11-14T08:27:55.340Z,52.72
2017-11-14T08:30:23.655Z,73.35
2017-11-14T08:32:51.993Z,49.78
2017-11-14T08:35:21.073Z,71.57
2017-11-14T08:37:49.359Z,56.10
2017-11-14T08:40:17.730Z,24.95
2017-11-14T08:42:46.032Z,38.33
2017-11-14T08:45:14.341Z,37.15
2017-11-14T08:47:43.275Z,41.77
2017-11-14T08:50:11.647Z,36.43
2017-11-14T08:52:40.696Z,44.53
2017-11-14T08:55:09.016Z,42.03
2017-11-14T08:57:37.303Z,63.57
2017-11-14T09:00:05.645Z,32.83
2017-11-14T09:02:33.995Z,41.90
2017-11-14T09:05:02.299Z,37.50
2017-11-14T09:07:30.593Z,46.33
2017-11-14T09:09:59.669Z,44.40
2017-11-14T09:12:27.968Z,43.37
2017-11-14T09:14:56.303Z,48.13
2017-11-14T09:17:24.592Z,45.17
2017-11-14T09:19:52.895Z,51.07
2017-11-14T09:22:21.222Z,41.87
2017-11-14T09:24:49.517Z,44.73
2017-11-14T09:27:17.843Z,50.67
2017-11-14T09:29:47.074Z,53.40
2017-11-14T09:32:15.348Z,46.53
2017-11-14T09:34:43.675Z,40.60
2017-11-14T09:37:12.020Z,48.17
2017-11-14T09:39:40.310Z,52.77
2017-11-14T09:42:08.620Z,40.67
2017-11-14T09:44:36.945Z,41.77
2017-11-14T09:47:05.272Z,59.10
2017-11-14T09:49:33.555Z,38.37
2017-11-14T09:52:01.885Z,42.93
2017-11-14T09:54:30.211Z,38.10
2017-11-14T09:56:58.492Z,38.93
2017-11-14T09:59:26.804Z,38.40
2017-11-14T10:01:55.147Z,46.60
2017-11-14T10:04:24.205Z,34.60
2017-11-14T10:06:52.522Z,37.40
2017-11-14T10:09:20.813Z,34.70
2017-11-14T10:11:49.140Z,34.73
2017-11-14T10:14:17.460Z,33.00
2017-11-14T10:16:45.774Z,35.13
2017-11-14T10:19:14.257Z,33.93
2017-11-14T10:21:42.584Z,39.63
2017-11-14T10:24:11.236Z,41.80
2017-11-14T10:26:39.531Z,43.37
2017-11-14T10:29:07.829Z,43.23
2017-11-14T10:31:36.186Z,36.50
2017-11-14T10:34:04.497Z,36.80
2017-11-14T10:36:32.829Z,37.47
2017-11-14T10:39:01.148Z,35.57
2017-11-14T10:41:29.437Z,41.50
2017-11-14T10:43:58.512Z,31.30
2017-11-14T10:46:26.816Z,27.93
2017-11-14T10:48:55.145Z,33.60
2017-11-14T10:51:23.464Z,30.43
2017-11-14T10:53:52.532Z,29.97
2017-11-14T10:56:20.812Z,25.87
2017-11-14T10:58:49.123Z,32.47
2017-11-14T11:01:17.404Z,28.77
2017-11-14T11:03:46.531Z,31.20
2017-11-14T11:06:14.855Z,22.80
2017-11-14T11:08:43.195Z,28.57
2017-11-14T11:11:11.523Z,32.30
2017-11-14T11:13:39.868Z,27.93
2017-11-14T11:16:08.919Z,29.77
2017-11-14T11:18:37.240Z,28.40
2017-11-14T11:21:05.547Z,31.37
2017-11-14T11:23:33.888Z,31.07
2017-11-14T11:26:02.972Z,32.13
2017-11-14T11:28:31.276Z,29.53
2017-11-14T11:30:59.608Z,29.80
2017-11-14T11:33:27.934Z,31.80
2017-11-14T11:35:57.146Z,27.30
2017-11-14T11:38:25.436Z,32.00
2017-11-14T11:40:55.676Z,32.30
2017-11-14T11:43:23.968Z,24.47
2017-11-14T11:45:54.152Z,25.87
2017-11-14T11:48:22.517Z,32.37
2017-11-14T11:50:50.840Z,33.97
2017-11-14T11:53:19.156Z,31.50
2017-11-14T11:55:47.507Z,37.93
2017-11-14T11:58:15.816Z,32.10
2017-11-14T12:00:44.200Z,32.40
2017-11-14T12:03:12.512Z,32.77
2017-11-14T12:05:42.904Z,33.97
2017-11-14T12:08:11.247Z,34.33
2017-11-14T12:10:43.303Z,38.20
2017-11-14T12:13:14.231Z,32.97
2017-11-14T12:15:42.888Z,36.40
2017-11-14T12:18:11.248Z,29.70
2017-11-14T12:20:39.571Z,36.30
2017-11-14T12:23:07.909Z,28.33
2017-11-14T12:25:39.256Z,33.87
2017-11-14T12:28:07.648Z,36.37
2017-11-14T12:30:35.968Z,31.30
2017-11-14T12:33:05.189Z,24.77
2017-11-14T12:35:33.524Z,21.73
2017-11-14T12:38:01.831Z,18.90
2017-11-14T12:40:30.138Z,16.43
2017-11-14T12:42:58.563Z,15.10
2017-11-14T12:45:27.647Z,12.27
2017-11-14T12:47:55.920Z,17.93
2017-11-14T12:50:24.252Z,15.27
2017-11-14T12:52:52.548Z,13.83
2017-11-14T12:55:20.853Z,9.20
2017-11-14T12:57:49.171Z,7.73
2017-11-14T13:00:17.466Z,15.93
2017-11-14T13:02:47.720Z,17.40
2017-11-14T13:05:16.036Z,10.10
2017-11-14T13:07:44.387Z,8.47
2017-11-14T13:10:12.706Z,10.43
2017-11-14T13:12:41.048Z,6.17
2017-11-14T13:15:09.394Z,14.87
2017-11-14T13:17:37.767Z,13.73
2017-11-14T13:20:06.108Z,11.50
2017-11-14T13:22:35.160Z,8.97
2017-11-14T13:25:03.495Z,13.33
2017-11-14T13:27:31.813Z,6.30
2017-11-14T13:30:00.137Z,10.30
2017-11-14T13:32:28.485Z,10.07
2017-11-14T13:34:56.774Z,7.30
2017-11-14T13:37:25.097Z,6.17
2017-11-14T13:39:53.381Z,8.97
2017-11-14T13:42:21.667Z,11.63
2017-11-14T13:44:50.010Z,5.83
2017-11-14T13:47:18.331Z,9.10
2017-11-14T13:49:46.702Z,11.80
2017-11-14T13:52:15.115Z,7.57
2017-11-14T13:54:43.397Z,11.90
2017-11-14T13:57:11.748Z,7.67
2017-11-14T13:59:40.180Z,12.67
2017-11-14T14:02:08.476Z,8.60
2017-11-14T14:04:36.775Z,6.30
2017-11-14T14:07:05.081Z,6.60
2017-11-14T14:09:33.392Z,10.70
2017-11-14T14:12:01.699Z,6.03
2017-11-14T14:14:30.058Z,6.80
2017-11-14T14:16:59.159Z,6.77
2017-11-14T14:19:27.486Z,7.27
2017-11-14T14:21:56.525Z,9.83
2017-11-14T14:24:24.837Z,8.50
2017-11-14T14:26:53.117Z,11.50
2017-11-14T14:29:21.636Z,13.33
2017-11-14T14:31:50.791Z,9.40
2017-11-14T14:34:19.074Z,10.50
2017-11-14T14:36:47.387Z,8.30
2017-11-14T14:39:15.723Z,7.90
2017-11-14T14:41:44.051Z,7.30
2017-11-14T14:44:13.180Z,10.80
2017-11-14T14:46:42.275Z,11.23
2017-11-14T14:49:12.022Z,10.27
2017-11-14T14:51:40.353Z,9.83
2017-11-14T14:54:08.844Z,4.33
2017-11-14T14:56:37.249Z,6.60
2017-11-14T14:59:05.530Z,9.50
2017-11-14T15:01:33.816Z,6.53
2017-11-14T15:04:02.900Z,3.97
2017-11-14T15:06:31.801Z,5.40
2017-11-14T15:09:00.164Z,6.93
2017-11-14T15:11:28.468Z,6.10
2017-11-14T15:13:56.796Z,2.50
2017-11-14T15:16:25.453Z,7.70
2017-11-14T15:18:53.782Z,10.80
2017-11-14T15:21:22.200Z,7.70
2017-11-14T15:23:53.006Z,7.33
2017-11-14T15:26:21.374Z,4.33
2017-11-14T15:28:49.662Z,5.23
2017-11-14T15:31:18.012Z,4.50
2017-11-14T15:33:47.184Z,8.00
2017-11-14T15:36:15.509Z,5.80
2017-11-14T15:38:44.228Z,10.43
2017-11-14T15:41:12.582Z,6.40
2017-11-14T15:43:41.306Z,6.23
2017-11-14T15:46:12.569Z,5.03
2017-11-14T15:48:40.898Z,3.07
2017-11-14T15:51:09.268Z,4.07
2017-11-14T15:53:38.336Z,7.67
2017-11-14T15:56:06.651Z,6.53
2017-11-14T15:58:34.957Z,7.23
2017-11-14T16:01:03.269Z,13.50
2017-11-14T16:03:31.562Z,10.17
2017-11-14T16:05:59.861Z,5.00
2017-11-14T16:08:28.171Z,8.70
2017-11-14T16:10:57.393Z,10.80
2017-11-14T16:13:25.690Z,13.50
2017-11-14T16:15:54.037Z,8.03
2017-11-14T16:18:22.369Z,16.10
2017-11-14T16:20:52.391Z,17.97
2017-11-14T16:23:23.523Z,14.70
2017-11-14T16:25:51.808Z,7.80
2017-11-14T16:28:20.109Z,10.43
2017-11-14T16:30:48.532Z,15.67
2017-11-14T16:33:16.868Z,8.70
2017-11-14T16:35:45.204Z,14.07
2017-11-14T16:38:13.572Z,10.10
2017-11-14T16:40:41.936Z,17.23
2017-11-14T16:43:10.259Z,11.27
2017-11-14T16:45:38.564Z,11.70
2017-11-14T16:48:06.994Z,10.93
2017-11-14T16:50:35.551Z,11.83
2017-11-14T16:53:03.861Z,13.27
2017-11-14T16:55:32.178Z,16.27
2017-11-14T16:58:00.560Z,18.10
2017-11-14T17:00:29.639Z,15.83
2017-11-14T17:02:57.925Z,16.30
2017-11-14T17:05:26.269Z,19.20
2017-11-14T17:07:54.601Z,19.87
2017-11-14T17:10:22.932Z,20.63
2017-11-14T17:12:51.457Z,28.70
2017-11-14T17:15:19.785Z,16.17
2017-11-14T17:17:48.077Z,25.33
2017-11-14T17:20:16.453Z,18.60
2017-11-14T17:22:44.744Z,28.10
2017-11-14T17:25:15.149Z,20.37
2017-11-14T17:27:43.448Z,15.47
2017-11-14T17:30:11.743Z,16.60
2017-11-14T17:32:40.080Z,13.70
2017-11-14T17:35:08.406Z,18.13
2017-11-14T17:37:37.480Z,17.77
2017-11-14T17:40:05.837Z,24.10
2017-11-14T17:42:35.500Z,15.07
2017-11-14T17:45:03.890Z,13.33
2017-11-14T17:47:32.251Z,15.80
2017-11-14T17:50:00.566Z,19.97
2017-11-14T17:52:28.943Z,23.43
2017-11-14T17:54:57.373Z,20.73
2017-11-14T17:57:25.679Z,28.63
2017-11-14T17:59:53.995Z,17.47
2017-11-14T18:02:22.368Z,22.90
2017-11-14T18:04:50.682Z,21.93
2017-11-14T18:07:18.987Z,24.50
2017-11-14T18:09:47.320Z,15.60
2017-11-14T18:12:15.614Z,18.57
2017-11-14T18:14:43.911Z,18.13
2017-11-14T18:17:12.231Z,25.87
2017-11-14T18:19:40.541Z,24.17
2017-11-14T18:22:08.872Z,24.87
2017-11-14T18:24:37.922Z,22.63
2017-11-14T18:27:06.230Z,22.80
2017-11-14T18:29:34.551Z,21.97
2017-11-14T18:32:02.836Z,21.40
2017-11-14T18:34:31.246Z,24.43
2017-11-14T18:36:59.563Z,21.83
2017-11-14T18:39:27.856Z,24.40
2017-11-14T18:41:56.137Z,22.93
2017-11-14T18:44:25.228Z,26.10
2017-11-14T18:46:53.523Z,21.20
2017-11-14T18:49:22.154Z,26.70
2017-11-14T18:52:01.817Z,26.53
2017-11-14T18:54:30.121Z,30.67
2017-11-14T18:56:58.423Z,26.00
2017-11-14T18:59:26.756Z,31.70
2017-11-14T19:01:55.071Z,16.50
2017-11-14T19:04:23.385Z,25.80
2017-11-14T19:06:52.442Z,23.60
2017-11-14T19:09:20.769Z,26.10
2017-11-14T19:11:49.087Z,29.93
2017-11-14T19:14:17.405Z,26.43
2017-11-14T19:16:45.736Z,27.20
2017-11-14T19:19:14.095Z,30.83
2017-11-14T19:21:42.406Z,37.67
2017-11-14T19:24:10.698Z,26.87
2017-11-14T19:26:39.987Z,19.83
2017-11-14T19:29:08.300Z,25.93
2017-11-14T19:31:36.632Z,21.50
2017-11-14T19:34:04.960Z,23.30
2017-11-14T19:36:33.264Z,22.90
2017-11-14T19:39:02.566Z,28.27
2017-11-14T19:41:32.161Z,27.33
2017-11-14T19:44:00.547Z,24.43
2017-11-14T19:46:28.931Z,29.80
2017-11-14T19:48:58.301Z,28.33
2017-11-14T19:51:26.644Z,26.23
2017-11-14T19:53:55.714Z,26.73
2017-11-14T19:56:24.016Z,22.40
2017-11-14T19:58:54.370Z,20.83
2017-11-14T20:01:23.168Z,26.53
2017-11-14T20:03:53.502Z,27.97
2017-11-14T20:06:22.017Z,30.87
2017-11-14T20:08:50.295Z,23.97
2017-11-14T20:11:19.372Z,35.03
2017-11-14T20:13:47.674Z,23.30
2017-11-14T20:16:16.052Z,25.43
2017-11-14T20:18:44.407Z,30.87
2017-11-14T20:21:12.705Z,20.57
2017-11-14T20:23:41.028Z,24.83
2017-11-14T20:26:09.372Z,34.40
2017-11-14T20:28:37.707Z,24.40
2017-11-14T20:31:06.148Z,21.83
2017-11-14T20:33:34.504Z,29.67
2017-11-14T20:36:12.628Z,24.63
2017-11-14T20:38:40.966Z,28.53
2017-11-14T20:41:09.269Z,28.47
2017-11-14T20:43:37.567Z,30.90
2017-11-14T20:46:06.644Z,24.00
2017-11-14T20:48:36.903Z,29.17
2017-11-14T20:51:05.236Z,22.77
2017-11-14T20:53:33.544Z,24.37
2017-11-14T20:56:01.835Z,26.37
2017-11-14T20:58:30.163Z,23.30
2017-11-14T21:00:58.472Z,21.77
2017-11-14T21:03:26.760Z,31.20
2017-11-14T21:05:55.088Z,21.37
2017-11-14T21:08:23.405Z,29.90
2017-11-14T21:10:52.532Z,28.23
2017-11-14T21:13:20.854Z,25.20
2017-11-14T21:15:49.181Z,25.40
2017-11-14T21:18:17.490Z,25.10
2017-11-14T21:20:45.792Z,20.10
2017-11-14T21:23:14.114Z,26.43
2017-11-14T21:25:42.431Z,22.87
2017-11-14T21:28:10.809Z,27.03
2017-11-14T21:30:39.103Z,21.53
2017-11-14T21:33:07.404Z,23.97
2017-11-14T21:35:35.719Z,28.30
2017-11-14T21:38:03.995Z,19.23
2017-11-14T21:40:33.052Z,30.70
2017-11-14T21:43:05.364Z,25.37
2017-11-14T21:45:33.691Z,23.50
2017-11-14T21:48:01.981Z,25.43
2017-11-14T21:50:30.313Z,29.60
2017-11-14T21:52:58.616Z,19.53
2017-11-14T21:55:26.953Z,21.10
2017-11-14T21:57:56.065Z,23.30
2017-11-14T22:00:24.380Z,29.80
2017-11-14T22:02:55.759Z,27.40
2017-11-14T22:05:24.067Z,23.10
2017-11-14T22:07:52.418Z,23.50
2017-11-14T22:10:20.736Z,26.00
2017-11-14T22:12:49.044Z,19.83
2017-11-14T22:15:17.401Z,25.43
2017-11-14T22:17:45.703Z,26.03
2017-11-14T22:20:14.000Z,23.10
2017-11-14T22:22:42.424Z,20.97
2017-11-14T22:25:11.422Z,28.57
2017-11-14T22:27:39.719Z,26.17
2017-11-14T22:30:08.108Z,21.93
2017-11-14T22:32:36.406Z,25.23
2017-11-14T22:35:04.808Z,20.87
2017-11-14T22:37:33.136Z,26.63
2017-11-14T22:40:01.430Z,26.03
2017-11-14T22:42:29.784Z,22.27
2017-11-14T22:45:04.256Z,26.67
2017-11-14T22:47:32.569Z,15.27
2017-11-14T22:50:00.879Z,19.67
2017-11-14T22:52:29.192Z,21.37
2017-11-14T22:54:58.259Z,22.53
2017-11-14T22:57:26.600Z,23.70
2017-11-14T22:59:54.889Z,22.37
2017-11-14T23:02:23.956Z,24.60
2017-11-14T23:04:52.275Z,18.30
2017-11-14T23:07:20.573Z,21.00
2017-11-14T23:09:49.628Z,27.67
2017-11-14T23:12:18.721Z,28.60
2017-11-14T23:14:47.057Z,18.70
2017-11-14T23:17:15.369Z,24.27
2017-11-14T23:19:43.737Z,23.27
2017-11-14T23:22:12.628Z,28.77
2017-11-14T23:24:40.923Z,27.83
2017-11-14T23:27:09.256Z,24.90
2017-11-14T23:29:37.681Z,23.73
2017-11-14T23:32:06.012Z,23.50
2017-11-14T23:34:34.341Z,19.90
2017-11-14T23:37:02.663Z,26.27
2017-11-14T23:39:31.752Z,25.03
2017-11-14T23:42:00.036Z,28.20
2017-11-14T23:44:29.089Z,20.60
2017-11-14T23:46:57.423Z,25.97
2017-11-14T23:49:25.748Z,17.70
2017-11-14T23:51:54.049Z,27.90
2017-11-14T23:54:22.361Z,21.43
2017-11-14T23:56:51.444Z,26.07
2017-11-14T23:59:19.788Z,26.27
